Time;durP1;ratioP1;P1;durP2;ratioP2;P2;SDS_P1;SDS_P2;PMS_P1;PMS_P2;Temp;Humidity;BMP_temperature;BMP_pressure;BME280_temperature;BME280_humidity;BME280_pressure;Samples;Min_cycle;Max_cycle;Signal;HPM_P1;HPM_P2
2023/09/10 00:01:28;;;;;;;;;;;;;;;18.38;100.00;101784.56;5020378;28;19968;-84
2023/09/10 00:04:14;;;;;;;;;;;;;;;18.38;100.00;101789.91;5033162;28;19929;-85
2023/09/10 00:06:59;;;;;;;;;;;;;;;18.35;100.00;101788.28;5032542;28;19979;-86
2023/09/10 00:09:45;;;;;;;;;;;;;;;18.31;100.00;101782.25;5032015;28;20055;-86
2023/09/10 00:12:30;;;;;;;;;;;;;;;18.30;100.00;101785.91;5020894;28;19929;-86
2023/09/10 00:15:16;;;;;;;;;;;;;;;18.28;100.00;101785.16;5033534;28;19938;-86
2023/09/10 00:18:02;;;;;;;;;;;;;;;18.27;100.00;101780.75;5020797;28;20588;-85
2023/09/10 00:20:50;;;;;;;;;;;;;;;18.27;100.00;101782.56;5034778;28;19944;-86
2023/09/10 00:23:36;;;;;;;;;;;;;;;18.25;100.00;101777.28;5016605;28;20023;-86
2023/09/10 00:26:22;;;;;;;;;;;;;;;18.23;100.00;101779.22;5029711;28;19940;-85
2023/09/10 00:29:07;;;;;;;;;;;;;;;18.22;100.00;101788.22;5021783;28;19934;-86
2023/09/10 00:31:56;;;;;;;;;;;;;;;18.22;100.00;101782.84;5037043;28;19933;-85
2023/09/10 00:34:41;;;;;;;;;;;;;;;18.23;100.00;101784.56;5035219;28;19928;-87
2023/09/10 00:37:34;;;;;;;;;;;;;;;18.23;100.00;101784.56;5031312;28;20063;-86
2023/09/10 00:40:19;;;;;;;;;;;;;;;18.21;100.00;101788.31;5021983;28;19929;-85
2023/09/10 00:43:05;;;;;;;;;;;;;;;18.19;100.00;101785.72;5028734;28;19928;-86
2023/09/10 00:45:53;;;;;;;;;;;;;;;18.14;100.00;101777.97;5054019;28;19924;-85
2023/09/10 00:48:39;;;;;;;;;;;;;;;18.12;100.00;101781.69;5040821;28;19928;-87
2023/09/10 00:51:25;;;;;;;;;;;;;;;18.08;100.00;101786.38;5039057;28;19933;-86
2023/09/10 00:54:11;;;;;;;;;;;;;;;18.06;100.00;101788.31;5043022;28;19924;-85
2023/09/10 00:56:57;;;;;;;;;;;;;;;18.04;100.00;101783.00;5038441;28;19943;-86
2023/09/10 00:59:43;;;;;;;;;;;;;;;18.02;100.00;101792.97;5052363;28;19928;-86
2023/09/10 01:02:28;;;;;;;;;;;;;;;18.00;100.00;101794.88;5054098;28;20501;-86
2023/09/10 01:05:15;;;;;;;;;;;;;;;17.96;100.00;101793.34;5038973;28;19928;-83
2023/09/10 01:08:02;;;;;;;;;;;;;;;17.93;100.00;101793.53;5021935;28;20014;-85
2023/09/10 01:11:03;;;;;;;;;;;;;;;17.91;100.00;101798.13;5040290;28;19928;-84
2023/09/10 01:14:08;;;;;;;;;;;;;;;17.91;100.00;101787.41;5041422;28;20083;-85
2023/09/10 01:17:09;;;;;;;;;;;;;;;17.91;100.00;101787.41;5056119;28;19947;-86
2023/09/10 01:20:15;;;;;;;;;;;;;;;17.90;100.00;101791.91;5039993;28;20284;-86
2023/09/10 01:23:00;;;;;;;;;;;;;;;17.90;100.00;101791.03;5054677;28;20019;-87
2023/09/10 01:25:46;;;;;;;;;;;;;;;17.91;100.00;101795.44;5035908;28;20005;-86
2023/09/10 01:28:32;;;;;;;;;;;;;;;17.90;100.00;101793.72;5035722;28;20582;-87
2023/09/10 01:31:17;;;;;;;;;;;;;;;17.88;100.00;101796.47;5057603;28;19989;-87
2023/09/10 01:34:07;;;;;;;;;;;;;;;17.86;100.00;101798.41;5057413;28;19938;-88
2023/09/10 01:37:13;;;;;;;;;;;;;;;17.85;100.00;101795.81;5036098;28;19981;-87
2023/09/10 01:39:58;;;;;;;;;;;;;;;17.81;100.00;101795.13;5037253;28;20389;-88
2023/09/10 01:42:48;;;;;;;;;;;;;;;17.79;100.00;101797.06;5051849;28;19931;-88
2023/09/10 01:45:34;;;;;;;;;;;;;;;17.77;100.00;101796.31;5041298;28;19959;-87
2023/09/10 01:48:19;;;;;;;;;;;;;;;17.74;100.00;101799.16;5023772;28;20292;-87
2023/09/10 01:51:05;;;;;;;;;;;;;;;17.71;100.00;101794.00;5039927;28;20409;-86
2023/09/10 01:54:00;;;;;;;;;;;;;;;17.68;100.00;101800.41;5040682;28;19928;-87
2023/09/10 01:56:48;;;;;;;;;;;;;;;17.65;100.00;101795.22;5038502;28;19978;-87
2023/09/10 01:59:34;;;;;;;;;;;;;;;17.62;100.00;101800.75;5054972;28;19938;-86
2023/09/10 02:02:19;;;;;;;;;;;;;;;17.59;100.00;101791.09;5050951;28;19940;-89
2023/09/10 02:05:05;;;;;;;;;;;;;;;17.57;100.00;101781.44;5040042;28;20203;-87
2023/09/10 02:07:53;;;;;;;;;;;;;;;17.55;100.00;101794.94;5050408;28;19951;-86
2023/09/10 02:10:41;;;;;;;;;;;;;;;17.51;100.00;101799.63;5023998;28;20083;-86
2023/09/10 02:13:28;;;;;;;;;;;;;;;17.48;100.00;101802.44;5034627;28;20383;-87
2023/09/10 02:16:13;;;;;;;;;;;;;;;17.47;100.00;101799.88;5038691;28;19932;-88
2023/09/10 02:18:59;;;;;;;;;;;;;;;17.45;100.00;101797.28;5052701;28;20084;-87
2023/09/10 02:21:45;;;;;;;;;;;;;;;17.45;100.00;101794.63;5051796;28;19983;-86
2023/09/10 02:24:30;;;;;;;;;;;;;;;17.44;100.00;101800.06;5050800;28;19982;-86
2023/09/10 02:27:16;;;;;;;;;;;;;;;17.42;100.00;101800.13;5024680;28;21782;-87
2023/09/10 02:30:05;;;;;;;;;;;;;;;17.42;100.00;101800.13;5036698;28;19924;-87
2023/09/10 02:32:51;;;;;;;;;;;;;;;17.40;100.00;101806.53;5035404;28;20042;-88
2023/09/10 02:35:37;;;;;;;;;;;;;;;17.37;100.00;101797.75;5038155;28;20355;-88
2023/09/10 02:38:27;;;;;;;;;;;;;;;17.37;100.00;101805.78;5052409;28;22022;-87
2023/09/10 02:41:12;;;;;;;;;;;;;;;17.35;100.00;101799.66;5052864;28;20133;-89
2023/09/10 02:43:58;;;;;;;;;;;;;;;17.33;100.00;101800.69;5030414;28;19928;-87
2023/09/10 02:46:43;;;;;;;;;;;;;;;17.31;100.00;101795.44;5030729;28;19928;-87
2023/09/10 02:49:29;;;;;;;;;;;;;;;17.30;100.00;101799.06;5033792;28;19932;-86
2023/09/10 02:52:19;;;;;;;;;;;;;;;17.28;100.00;101800.97;5037089;28;20003;-87
2023/09/10 02:55:05;;;;;;;;;;;;;;;17.24;100.00;101796.75;5031616;28;19972;-87
2023/09/10 02:57:50;;;;;;;;;;;;;;;17.23;100.00;101800.38;5030579;28;20451;-88
2023/09/10 03:00:36;;;;;;;;;;;;;;;17.21;100.00;101802.28;5034019;28;20031;-86
2023/09/10 03:03:22;;;;;;;;;;;;;;;17.18;100.00;101800.66;5015509;28;19927;-87
2023/09/10 03:06:12;;;;;;;;;;;;;;;17.17;100.00;101806.94;5032999;28;20024;-86
2023/09/10 03:08:58;;;;;;;;;;;;;;;17.17;100.00;101798.06;5032452;28;20335;-87
2023/09/10 03:11:44;;;;;;;;;;;;;;;17.15;100.00;101792.78;5033992;28;19932;-88
2023/09/10 03:14:30;;;;;;;;;;;;;;;17.13;100.00;101789.34;5018235;28;20870;-88
2023/09/10 03:17:15;;;;;;;;;;;;;;;17.10;100.00;101779.69;5017838;28;20595;-87
2023/09/10 03:20:03;;;;;;;;;;;;;;;17.08;100.00;101786.06;5033305;28;19929;-88
2023/09/10 03:22:50;;;;;;;;;;;;;;;17.04;100.00;101780.03;5032800;28;19933;-86
2023/09/10 03:25:37;;;;;;;;;;;;;;;17.03;100.00;101777.44;5030044;28;20018;-87
2023/09/10 03:28:23;;;;;;;;;;;;;;;17.01;100.00;101776.66;5031809;28;21914;-88
2023/09/10 03:31:09;;;;;;;;;;;;;;;17.00;100.00;101780.28;5031839;28;21701;-87
2023/09/10 03:33:55;;;;;;;;;;;;;;;16.99;100.00;101781.22;5036061;28;20002;-87
2023/09/10 03:36:40;;;;;;;;;;;;;;;16.99;100.00;101784.75;5034240;28;20732;-89
2023/09/10 03:39:26;;;;;;;;;;;;;;;16.97;100.00;101784.88;5035941;28;20037;-88
2023/09/10 03:42:12;;;;;;;;;;;;;;;16.97;100.00;101784.00;5033191;28;21891;-88
2023/09/10 03:44:58;;;;;;;;;;;;;;;16.95;100.00;101792.09;5032152;28;20023;-88
2023/09/10 03:47:44;;;;;;;;;;;;;;;16.94;100.00;101778.84;5028534;28;19932;-88
2023/09/10 03:50:29;;;;;;;;;;;;;;;16.94;100.00;101777.00;5031997;28;19983;-87
2023/09/10 03:53:17;;;;;;;;;;;;;;;16.94;100.00;101785.03;5033360;28;19933;-87
2023/09/10 03:56:05;;;;;;;;;;;;;;;16.93;100.00;101780.63;5030109;28;20388;-86
2023/09/10 03:58:51;;;;;;;;;;;;;;;16.92;100.00;101781.59;5019537;28;19983;-89
2023/09/10 04:01:36;;;;;;;;;;;;;;;16.93;100.00;101783.31;5031502;28;19933;-87
2023/09/10 04:04:24;;;;;;;;;;;;;;;16.94;100.00;101778.84;5035386;28;19951;-87
2023/09/10 04:07:19;;;;;;;;;;;;;;;16.92;100.00;101781.59;5049890;28;19959;-87
2023/09/10 04:10:06;;;;;;;;;;;;;;;16.91;100.00;101784.34;5034030;28;19928;-88
2023/09/10 04:12:52;;;;;;;;;;;;;;;16.90;100.00;101780.81;5032505;28;20001;-87
2023/09/10 04:15:37;;;;;;;;;;;;;;;16.90;100.00;101786.19;5034641;28;20035;-86
2023/09/10 04:18:25;;;;;;;;;;;;;;;16.90;100.00;101783.50;5018920;28;20334;-87
2023/09/10 04:21:11;;;;;;;;;;;;;;;16.89;100.00;101779.06;5024856;28;19929;-89
2023/09/10 04:23:57;;;;;;;;;;;;;;;16.89;100.00;101780.91;5037641;28;19928;-86
2023/09/10 04:26:42;;;;;;;;;;;;;;;16.88;100.00;101781.84;5035823;28;19935;-87
2023/09/10 04:29:28;;;;;;;;;;;;;;;16.86;100.00;101781.94;5037914;28;20229;-85
2023/09/10 04:32:13;;;;;;;;;;;;;;;16.86;100.00;101787.28;5035788;28;20076;-85
2023/09/10 04:34:59;;;;;;;;;;;;;;;16.84;100.00;101794.53;5037260;28;20070;-87
2023/09/10 04:37:45;;;;;;;;;;;;;;;16.83;100.00;101792.78;5037999;28;19931;-86
2023/09/10 04:40:31;;;;;;;;;;;;;;;16.81;100.00;101800.06;5037300;28;19924;-85
2023/09/10 04:43:17;;;;;;;;;;;;;;;16.78;100.00;101793.06;5037724;28;19951;-87
2023/09/10 04:46:02;;;;;;;;;;;;;;;16.77;100.00;101796.69;5041228;28;19935;-87
2023/09/10 04:48:48;;;;;;;;;;;;;;;16.76;100.00;101791.41;5041826;28;19924;-87
2023/09/10 04:51:37;;;;;;;;;;;;;;;16.75;100.00;101793.25;5042085;28;19932;-87
2023/09/10 04:54:22;;;;;;;;;;;;;;;16.76;100.00;101799.44;5047973;28;20021;-86
2023/09/10 04:57:09;;;;;;;;;;;;;;;16.75;100.00;101801.28;5044717;28;20023;-86
2023/09/10 04:59:56;;;;;;;;;;;;;;;16.75;100.00;101801.28;5060107;28;19920;-87
2023/09/10 05:02:42;;;;;;;;;;;;;;;16.75;100.00;101805.75;5042404;28;19935;-86
2023/09/10 05:05:27;;;;;;;;;;;;;;;16.76;100.00;101803.00;5059370;28;19951;-87
2023/09/10 05:08:13;;;;;;;;;;;;;;;16.78;100.00;101810.94;5043162;28;19938;-87
2023/09/10 05:10:58;;;;;;;;;;;;;;;16.77;100.00;101812.72;5042355;28;19924;-87
2023/09/10 05:13:44;;;;;;;;;;;;;;;16.78;100.00;101810.94;5041126;28;19928;-86
2023/09/10 05:16:30;;;;;;;;;;;;;;;16.78;100.00;101814.44;5058754;28;19932;-87
2023/09/10 05:19:15;;;;;;;;;;;;;;;16.80;100.00;101809.03;5057959;28;20011;-87
2023/09/10 05:22:04;;;;;;;;;;;;;;;16.80;100.00;101804.56;5043164;28;19929;-87
2023/09/10 05:24:49;;;;;;;;;;;;;;;16.83;100.00;101820.41;5041379;28;20395;-87
2023/09/10 05:27:42;;;;;;;;;;;;;;;16.83;100.00;101815.06;5054012;28;20007;-87
2023/09/10 05:30:28;;;;;;;;;;;;;;;16.84;100.00;101813.25;5054192;28;19932;-86
2023/09/10 05:33:17;;;;;;;;;;;;;;;16.85;100.00;101806.97;5054953;28;19932;-87
2023/09/10 05:36:02;;;;;;;;;;;;;;;16.89;100.00;101807.66;5039678;28;19929;-86
2023/09/10 05:38:49;;;;;;;;;;;;;;;16.91;100.00;101820.00;5027710;28;20470;-87
2023/09/10 05:41:35;;;;;;;;;;;;;;;16.93;100.00;101817.19;5054216;28;19928;-87
2023/09/10 05:44:20;;;;;;;;;;;;;;;16.95;100.00;101820.66;5056570;28;19932;-87
2023/09/10 05:47:06;;;;;;;;;;;;;;;16.96;100.00;101815.22;5042683;28;19929;-87
2023/09/10 05:49:52;;;;;;;;;;;;;;;17.00;100.00;101813.22;5055930;28;19928;-86
2023/09/10 05:52:38;;;;;;;;;;;;;;;17.04;100.00;101819.28;5043603;28;19928;-87
2023/09/10 05:55:24;;;;;;;;;;;;;;;17.07;100.00;101813.78;5043887;28;19935;-85
2023/09/10 05:58:11;;;;;;;;;;;;;;;17.10;100.00;101827.84;5038378;28;20065;-87
2023/09/10 06:00:56;;;;;;;;;;;;;;;17.14;100.00;101823.16;5055531;28;20011;-86
2023/09/10 06:03:42;;;;;;;;;;;;;;;17.16;100.00;101809.72;5040595;28;19929;-87
2023/09/10 06:06:28;;;;;;;;;;;;;;;17.21;100.00;101826.38;5053321;28;20058;-86
2023/09/10 06:09:14;;;;;;;;;;;;;;;17.24;100.00;101826.19;5041337;28;19929;-86
2023/09/10 06:12:00;;;;;;;;;;;;;;;17.27;100.00;101828.66;5050248;28;20023;-85
2023/09/10 06:14:45;;;;;;;;;;;;;;;17.33;100.00;101827.47;5036550;28;19928;-86
2023/09/10 06:17:31;;;;;;;;;;;;;;;17.38;100.00;101825.38;5041285;28;19931;-85
2023/09/10 06:20:19;;;;;;;;;;;;;;;17.42;100.00;101834.94;5035794;28;19974;-85
2023/09/10 06:23:05;;;;;;;;;;;;;;;17.47;100.00;101835.53;5057282;28;19924;-85
2023/09/10 06:25:51;;;;;;;;;;;;;;;17.53;100.00;101838.81;5058860;28;19971;-85
2023/09/10 06:28:37;;;;;;;;;;;;;;;17.58;100.00;101847.41;5042036;28;19936;-86
2023/09/10 06:31:22;;;;;;;;;;;;;;;17.63;100.00;101842.66;5057598;28;20019;-84
2023/09/10 06:34:08;;;;;;;;;;;;;;;17.68;100.00;101845.91;5059736;28;19928;-84
2023/09/10 06:36:54;;;;;;;;;;;;;;;17.72;100.00;101839.44;5055738;28;19950;-85
2023/09/10 06:39:39;;;;;;;;;;;;;;;17.76;100.00;101840.94;5039646;28;19925;-81
2023/09/10 06:42:34;;;;;;;;;;;;;;;17.80;100.00;101838.09;5028632;28;19933;-81
2023/09/10 06:45:20;;;;;;;;;;;;;;;17.84;100.00;101845.84;5054379;28;20617;-85
2023/09/10 06:48:06;;;;;;;;;;;;;;;17.90;100.00;101845.50;5037871;28;20379;-83
2023/09/10 06:50:51;;;;;;;;;;;;;;;17.94;100.00;101848.84;5038982;28;19935;-84
2023/09/10 06:53:39;;;;;;;;;;;;;;;18.00;100.00;101853.81;5054556;28;20417;-85
2023/09/10 06:56:25;;;;;;;;;;;;;;;18.07;100.00;101848.13;5039874;28;20946;-85
2023/09/10 06:59:13;;;;;;;;;;;;;;;18.17;100.00;101849.25;5031769;28;19928;-84
2023/09/10 07:01:59;;;;;;;;;;;;;;;18.24;100.00;101849.75;5038588;28;19928;-83
2023/09/10 07:04:47;;;;;;;;;;;;;;;18.30;100.00;101847.53;5038679;28;19935;-82
2023/09/10 07:07:36;;;;;;;;;;;;;;;18.40;100.00;101852.31;5057711;28;19982;-83
2023/09/10 07:10:22;;;;;;;;;;;;;;;18.48;100.00;101851.84;5057501;28;19924;-81
2023/09/10 07:13:10;;;;;;;;;;;;;;;18.55;100.00;101848.69;5042249;28;19931;-83
2023/09/10 07:15:55;;;;;;;;;;;;;;;18.63;100.00;101850.00;5041274;28;19928;-84
2023/09/10 07:18:41;;;;;;;;;;;;;;;18.72;100.00;101846.72;5038950;28;19928;-82
2023/09/10 07:21:27;;;;;;;;;;;;;;;18.82;100.00;101850.56;5037492;28;20119;-83
2023/09/10 07:24:15;;;;;;;;;;;;;;;18.89;100.00;101848.31;5058707;28;20072;-84
2023/09/10 07:27:01;;;;;;;;;;;;;;;18.98;100.00;101854.91;5060175;28;19933;-82
2023/09/10 07:29:48;;;;;;;;;;;;;;;19.03;100.00;101852.84;5040727;28;19935;-82
2023/09/10 07:32:49;;;;;;;;;;;;;;;19.10;100.00;101846.09;5058361;28;19932;-79
2023/09/10 07:35:35;;;;;;;;;;;;;;;19.20;100.00;101849.03;5040525;28;19933;-79
2023/09/10 07:38:20;;;;;;;;;;;;;;;19.28;100.00;101837.75;5059141;28;19924;-83
2023/09/10 07:41:06;;;;;;;;;;;;;;;19.38;100.00;101843.38;5039153;28;19955;-84
2023/09/10 07:43:51;;;;;;;;;;;;;;;19.49;100.00;101856.06;5058879;28;20729;-82
2023/09/10 07:46:43;;;;;;;;;;;;;;;19.60;100.00;101855.38;5041466;28;19971;-82
2023/09/10 07:49:29;;;;;;;;;;;;;;;19.71;100.00;101858.16;5041792;28;20353;-82
2023/09/10 07:52:14;;;;;;;;;;;;;;;19.84;100.00;101860.03;5033060;28;19929;-82
2023/09/10 07:55:00;;;;;;;;;;;;;;;19.93;100.00;101859.38;5058713;28;19924;-82
2023/09/10 07:57:46;;;;;;;;;;;;;;;20.04;100.00;101866.75;5042595;28;19928;-81
2023/09/10 08:00:36;;;;;;;;;;;;;;;20.13;100.00;101860.72;5055842;28;20065;-82
2023/09/10 08:03:21;;;;;;;;;;;;;;;20.24;100.00;101861.75;5043038;28;20027;-80
2023/09/10 08:06:07;;;;;;;;;;;;;;;20.34;100.00;101852.09;5038739;28;19924;-83
2023/09/10 08:08:53;;;;;;;;;;;;;;;20.46;100.00;101869.16;5056020;28;20040;-81
2023/09/10 08:11:38;;;;;;;;;;;;;;;20.56;100.00;101869.38;5057346;28;19943;-82
2023/09/10 08:14:24;;;;;;;;;;;;;;;20.66;100.00;101866.88;5041586;28;19931;-82
2023/09/10 08:17:10;;;;;;;;;;;;;;;20.75;100.00;101867.06;5058513;28;20042;-79
2023/09/10 08:19:55;;;;;;;;;;;;;;;20.87;100.00;101864.50;5049937;28;19932;-82
2023/09/10 08:22:42;;;;;;;;;;;;;;;20.99;100.00;101871.66;5043266;28;20386;-80
2023/09/10 08:25:28;;;;;;;;;;;;;;;21.11;100.00;101869.88;5058196;28;20045;-80
2023/09/10 08:28:13;;;;;;;;;;;;;;;21.20;100.00;101862.97;5059256;28;19962;-82
2023/09/10 08:30:59;;;;;;;;;;;;;;;21.30;100.00;101858.59;5055613;28;21407;-82
2023/09/10 08:33:47;;;;;;;;;;;;;;;21.39;100.00;101856.16;5057215;28;19933;-82
2023/09/10 08:36:33;;;;;;;;;;;;;;;21.47;100.00;101858.28;5056176;28;21319;-82
2023/09/10 08:39:20;;;;;;;;;;;;;;;21.54;100.00;101851.47;5057969;28;19924;-83
2023/09/10 08:42:14;;;;;;;;;;;;;;;21.63;100.00;101858.81;5058485;28;20019;-82
2023/09/10 08:45:00;;;;;;;;;;;;;;;21.72;100.00;101857.28;5041914;28;20038;-83
2023/09/10 08:47:48;;;;;;;;;;;;;;;21.79;100.00;101853.16;5040908;28;20374;-83
2023/09/10 08:50:34;;;;;;;;;;;;;;;21.84;100.00;101859.03;5058221;28;19959;-83
2023/09/10 08:53:19;;;;;;;;;;;;;;;21.93;100.00;101862.00;5044122;28;19928;-81
2023/09/10 08:56:06;;;;;;;;;;;;;;;22.05;100.00;101860.19;5060380;28;19935;-83
2023/09/10 08:58:54;;;;;;;;;;;;;;;22.16;100.00;101853.94;5043069;28;19944;-84
2023/09/10 09:01:47;;;;;;;;;;;;;;;22.30;100.00;101855.53;5044889;28;19995;-82
2023/09/10 09:04:32;;;;;;;;;;;;;;;22.44;100.00;101857.13;5058230;28;19938;-83
2023/09/10 09:07:21;;;;;;;;;;;;;;;22.59;100.00;101846.94;5045242;28;19966;-83
2023/09/10 09:10:07;;;;;;;;;;;;;;;22.72;100.00;101849.53;5041295;28;19970;-84
2023/09/10 09:12:54;;;;;;;;;;;;;;;22.84;100.00;101840.44;5040979;28;19934;-83
2023/09/10 09:15:42;;;;;;;;;;;;;;;22.99;100.00;101842.84;5031012;28;19931;-81
2023/09/10 09:18:28;;;;;;;;;;;;;;;23.09;100.00;101834.84;5042908;28;20990;-82
2023/09/10 09:21:17;;;;;;;;;;;;;;;23.17;100.00;101841.31;5059091;28;19925;-83
2023/09/10 09:24:03;;;;;;;;;;;;;;;23.23;100.00;101839.06;5043409;28;19924;-83
2023/09/10 09:26:50;;;;;;;;;;;;;;;23.31;100.00;101836.63;5031024;28;19930;-83
2023/09/10 09:29:35;;;;;;;;;;;;;;;23.38;100.00;101836.94;5043007;28;19989;-85
2023/09/10 09:32:21;;;;;;;;;;;;;;;23.43;100.00;101846.34;5060450;28;19964;-85
2023/09/10 09:35:10;;;;;;;;;;;;;;;23.46;100.00;101832.59;5040335;28;19928;-84
2023/09/10 09:37:58;;;;;;;;;;;;;;;23.53;100.00;101838.31;5044850;28;19929;-86
2023/09/10 09:40:44;;;;;;;;;;;;;;;23.55;100.00;101836.38;5041281;28;19936;-86
2023/09/10 09:43:34;;;;;;;;;;;;;;;23.64;100.00;101833.88;5045193;28;19924;-87
2023/09/10 09:46:20;;;;;;;;;;;;;;;23.75;100.00;101833.78;5044477;28;19969;-85
2023/09/10 09:49:06;;;;;;;;;;;;;;;23.81;100.00;101832.41;5059967;28;19924;-86
2023/09/10 09:51:55;;;;;;;;;;;;;;;23.82;100.00;101826.00;5060351;28;20337;-86
2023/09/10 09:54:40;;;;;;;;;;;;;;;23.82;100.00;101832.28;5031706;28;20623;-85
2023/09/10 09:57:26;;;;;;;;;;;;;;;23.83;100.00;101830.41;5059798;28;20379;-86
2023/09/10 10:00:12;;;;;;;;;;;;;;;23.90;100.00;101828.88;5039121;28;19932;-87
2023/09/10 10:02:58;;;;;;;;;;;;;;;23.98;100.00;101831.75;5058230;28;19932;-84
2023/09/10 10:05:46;;;;;;;;;;;;;;;24.08;100.00;101831.00;5042217;28;19928;-86
2023/09/10 10:08:32;;;;;;;;;;;;;;;24.16;100.00;101828.47;5057869;28;19928;-86
2023/09/10 10:11:31;;;;;;;;;;;;;;;24.18;100.00;101821.06;5028727;28;20066;-85
2023/09/10 10:14:16;;;;;;;;;;;;;;;24.18;100.00;101826.47;5043036;28;21781;-82
2023/09/10 10:17:03;;;;;;;;;;;;;;;24.20;100.00;101823.66;5057179;28;19989;-82
2023/09/10 10:19:49;;;;;;;;;;;;;;;24.20;100.00;101812.84;5041031;28;20721;-86
2023/09/10 10:22:34;;;;;;;;;;;;;;;24.21;100.00;101810.00;5043393;28;20002;-86
2023/09/10 10:25:22;;;;;;;;;;;;;;;24.26;100.00;101817.69;5041547;28;19939;-85
2023/09/10 10:28:09;;;;;;;;;;;;;;;24.28;100.00;101815.69;5041041;28;19971;-84
2023/09/10 10:30:57;;;;;;;;;;;;;;;24.33;100.00;101812.59;5056695;28;19924;-81
2023/09/10 10:34:11;;;;;;;;;;;;;;;24.38;100.00;101810.31;5057206;28;19935;-89
2023/09/10 10:37:01;;;;;;;;;;;;;;;24.45;100.00;101805.22;5012264;28;19971;-85
2023/09/10 10:39:53;;;;;;;;;;;;;;;24.46;100.00;101805.06;5042381;28;19950;-87
2023/09/10 10:42:58;;;;;;;;;;;;;;;24.47;100.00;101797.81;5032852;28;19929;-89
2023/09/10 10:45:45;;;;;;;;;;;;;;;24.54;100.00;101797.16;5022510;28;19966;-90
2023/09/10 10:48:32;;;;;;;;;;;;;;;24.56;100.00;101796.97;5021588;28;20453;-86
2023/09/10 10:51:18;;;;;;;;;;;;;;;24.60;100.00;101793.00;5036639;28;19935;-87
2023/09/10 10:54:04;;;;;;;;;;;;;;;24.71;100.00;101791.19;5038817;28;19920;-85
2023/09/10 10:56:50;;;;;;;;;;;;;;;24.79;100.00;101797.59;5023676;28;19950;-90
2023/09/10 10:59:38;;;;;;;;;;;;;;;24.84;100.00;101793.66;5024462;28;20358;-86
2023/09/10 11:02:24;;;;;;;;;;;;;;;24.90;100.00;101788.50;5021044;28;19928;-87
2023/09/10 11:05:10;;;;;;;;;;;;;;;25.01;100.00;101792.09;5033700;28;20437;-89
2023/09/10 11:08:15;;;;;;;;;;;;;;;25.05;100.00;101788.09;5038693;28;20026;-88
2023/09/10 11:11:01;;;;;;;;;;;;;;;25.03;100.00;101782.81;5035505;28;19931;-81
2023/09/10 11:14:03;;;;;;;;;;;;;;;25.05;100.00;101777.28;5034871;28;19979;-88
2023/09/10 11:16:48;;;;;;;;;;;;;;;25.11;100.00;101778.53;5016535;28;19973;-88
2023/09/10 11:19:44;;;;;;;;;;;;;;;25.15;100.00;101774.53;5026176;28;19924;-91
2023/09/10 11:23:03;;;;;;;;;;;;;;;25.22;100.00;101775.69;5024900;28;20584;-84
2023/09/10 11:25:48;;;;;;;;;;;;;;;25.25;100.00;101769.09;4995411;28;20402;-84
2023/09/10 11:28:38;;;;;;;;;;;;;;;25.27;100.00;101775.25;5024953;28;19929;-91
2023/09/10 11:31:33;;;;;;;;;;;;;;;25.27;100.00;101772.53;5035770;28;19948;-85
2023/09/10 11:34:22;;;;;;;;;;;;;;;25.26;100.00;101777.09;5028376;28;19932;-87
2023/09/10 11:37:10;;;;;;;;;;;;;;;25.36;100.00;101772.53;5035727;28;20703;-87
2023/09/10 11:40:00;;;;;;;;;;;;;;;25.45;100.00;101769.94;5018863;28;19928;-87
2023/09/10 11:42:53;;;;;;;;;;;;;;;25.52;100.00;101776.53;5024819;28;19932;-93
2023/09/10 11:45:40;;;;;;;;;;;;;;;25.56;100.00;101767.09;5025992;28;20326;-88
2023/09/10 11:48:26;;;;;;;;;;;;;;;25.59;100.00;101766.81;5034906;28;19932;-89
2023/09/10 11:51:12;;;;;;;;;;;;;;;25.59;100.00;101761.38;5033285;28;19928;-89
2023/09/10 11:53:57;;;;;;;;;;;;;;;25.59;100.00;101764.09;5045208;28;20318;-85
2023/09/10 11:56:51;;;;;;;;;;;;;;;25.59;100.00;101761.38;5048458;28;19928;-94
2023/09/10 11:59:39;;;;;;;;;;;;;;;25.62;100.00;101755.66;5044558;28;19931;-93
2023/09/10 12:02:25;;;;;;;;;;;;;;;25.67;100.00;101757.94;5052421;28;20387;-96
2023/09/10 12:05:11;;;;;;;;;;;;;;;25.73;100.00;101761.91;5039374;28;19935;-93
2023/09/10 12:08:01;;;;;;;;;;;;;;;25.79;100.00;101763.16;5039262;28;20291;-90
2023/09/10 12:10:47;;;;;;;;;;;;;;;25.82;100.00;101761.00;5040419;28;19927;-91
2023/09/10 12:13:35;;;;;;;;;;;;;;;25.80;100.00;101760.31;5035238;28;19929;-90
2023/09/10 12:16:20;;;;;;;;;;;;;;;25.80;100.00;101763.03;5032309;28;19928;-86
2023/09/10 12:19:06;;;;;;;;;;;;;;;25.81;100.00;101766.59;5042507;28;20474;-88
2023/09/10 12:21:52;;;;;;;;;;;;;;;25.81;100.00;101759.31;5056042;28;20050;-88
2023/09/10 12:24:40;;;;;;;;;;;;;;;25.83;100.00;101762.75;5048243;28;19962;-87
2023/09/10 12:27:26;;;;;;;;;;;;;;;25.86;100.00;101756.13;5048663;28;20471;-91
2023/09/10 12:30:12;;;;;;;;;;;;;;;25.90;100.00;101749.41;5033123;28;20038;-86
2023/09/10 12:33:00;;;;;;;;;;;;;;;25.94;100.00;101749.97;5061448;28;21527;-87
2023/09/10 12:35:49;;;;;;;;;;;;;;;25.93;100.00;101748.28;5045780;28;19930;-86
2023/09/10 12:38:35;;;;;;;;;;;;;;;25.92;100.00;101757.41;5044250;28;20536;-87
2023/09/10 12:41:21;;;;;;;;;;;;;;;25.87;100.00;101753.28;5046835;28;19928;-89
2023/09/10 12:44:07;;;;;;;;;;;;;;;25.90;100.00;101753.00;5033029;28;19920;-88
2023/09/10 12:46:52;;;;;;;;;;;;;;;25.93;100.00;101756.41;5043602;28;19954;-88
2023/09/10 12:49:38;;;;;;;;;;;;;;;25.98;100.00;101751.41;5041717;28;19928;-87
2023/09/10 12:52:24;;;;;;;;;;;;;;;26.01;100.00;101746.53;5024037;28;20403;-88
2023/09/10 12:55:10;;;;;;;;;;;;;;;26.03;100.00;101740.94;5060057;28;19989;-92
2023/09/10 12:57:56;;;;;;;;;;;;;;;26.04;100.00;101737.22;5030461;28;20335;-92
2023/09/10 13:00:42;;;;;;;;;;;;;;;26.02;100.00;101731.94;5029282;28;20018;-81
2023/09/10 13:03:30;;;;;;;;;;;;;;;26.03;100.00;101730.06;5044272;28;19993;-91
2023/09/10 13:06:16;;;;;;;;;;;;;;;26.11;100.00;101732.03;5041914;28;19932;-87
2023/09/10 13:09:05;;;;;;;;;;;;;;;26.17;100.00;101726.00;5033263;28;19932;-92
2023/09/10 13:11:50;;;;;;;;;;;;;;;26.15;100.00;101722.59;5043142;28;20349;-87
2023/09/10 13:14:39;;;;;;;;;;;;;;;26.13;100.00;101728.19;5054373;28;20394;-88
2023/09/10 13:17:27;;;;;;;;;;;;;;;26.14;100.00;101721.75;5055600;28;19959;-86
2023/09/10 13:20:13;;;;;;;;;;;;;;;26.16;100.00;101727.03;5052834;28;19932;-87
2023/09/10 13:23:07;;;;;;;;;;;;;;;26.17;100.00;101720.59;5025628;28;19925;-89
2023/09/10 13:25:55;;;;;;;;;;;;;;;26.17;100.00;101717.88;5044904;28;20402;-92
2023/09/10 13:28:41;;;;;;;;;;;;;;;26.19;100.00;101717.72;5031561;28;19935;-88
2023/09/10 13:31:29;;;;;;;;;;;;;;;26.18;100.00;101711.44;5057720;28;20079;-89
2023/09/10 13:34:14;;;;;;;;;;;;;;;26.22;100.00;101717.44;5044321;28;19932;-86
2023/09/10 13:37:03;;;;;;;;;;;;;;;26.23;100.00;101720.03;5042485;28;19932;-86
2023/09/10 13:39:48;;;;;;;;;;;;;;;26.26;100.00;101718.84;5041796;28;20056;-87
2023/09/10 13:42:35;;;;;;;;;;;;;;;26.27;100.00;101710.56;5043489;28;19932;-87
2023/09/10 13:45:21;;;;;;;;;;;;;;;26.28;100.00;101711.41;5033181;28;20396;-86
2023/09/10 13:48:07;;;;;;;;;;;;;;;26.30;100.00;101710.25;5039110;28;19933;-87
2023/09/10 13:50:52;;;;;;;;;;;;;;;26.29;100.00;101697.69;5048628;28;19921;-86
2023/09/10 13:53:41;;;;;;;;;;;;;;;26.28;100.00;101701.44;5038481;28;19936;-86
2023/09/10 13:56:32;;;;;;;;;;;;;;;26.31;100.00;101697.56;5033383;28;19986;-85
2023/09/10 13:59:18;;;;;;;;;;;;;;;26.33;100.00;101702.81;5037318;28;20023;-84
2023/09/10 14:02:03;;;;;;;;;;;;;;;26.36;100.00;101700.63;5040635;28;20419;-86
2023/09/10 14:04:49;;;;;;;;;;;;;;;26.40;100.00;101699.34;5040910;28;19928;-87
2023/09/10 14:07:35;;;;;;;;;;;;;;;26.42;100.00;101696.47;5040326;28;19940;-85
2023/09/10 14:10:20;;;;;;;;;;;;;;;26.44;100.00;101689.03;5038859;28;20023;-84